Garden Grove, IA (50103)

8:01 AM CST on December 03, 2016 (GMT -0600)
Osceola Municipal | | Change Station

Elev 1109 ft 41.05 °N, 93.69 °W | Updated 6 minutes ago

Light Freezing Fog
Freezing Fog
26 °F
Feels Like 22 °F
N
4
Wind Variable Wind from NNE

Today
High -- | Low -- °F
--% Chance of Precip.
Yesterday
High -- | Low -- °F
Precip. -- in
Pressure 30.31 in
Visibility 0.2 miles
Clouds Overcast 100 ft
Windchill 22 °F
Dew Point 25 °F
Humidity 97%
Rainfall 0.00 in
Snow Depth Not available.
7:21 AM 4:46 PM
Waxing Crescent, 15% visible
METAR KI75 031355Z AUTO 03003KT 1/4SM FZFG OVC001 M03/M04 A3031 RMK AO2 T10351039
Pressure 30.31 in
Visibility 0.2 miles
Clouds Overcast 100 ft
Windchill 22 °F
Dew Point 25 °F
Humidity 97%
Rainfall 0.00 in
Snow Depth Not available.
7:21 AM 4:46 PM
Waxing Crescent, 15% visible
METAR KI75 031355Z AUTO 03003KT 1/4SM FZFG OVC001 M03/M04 A3031 RMK AO2 T10351039

10-Day Weather Forecast

Almanac

Astronomy

Dec. 03, 2016 Rise Set
Actual Time
Civil Twilight
Nautical Twilight
Astronomical Twilight
Moon
Length of Visible Light
Length of Day
Tomorrow will be .
, % of the Moon is Illuminated

Today's Extremes

State Highs State Lows

Community

WunderPhotos

Upload Photos

1,955,446 photos uploaded!

WunderBlog® & News

Nearby

Air Quality

  Air Quality AQ Index Pollutant
Not available.

Snow Depth

Station Depth Elevation

Earthquake Activity

City Distance Mag. Time & Date
Minimum magnitude displayed is 2.5.

Coastal Water Temperatures

Place Temperature

Stations

Nearby Weather Stations

Station Location Temp. Windchill Dew Point Humidity Wind Precip. Elev Updated Type
                   

Watches & Warnings

There are currently no watches in effect.